Collegedale, Tennessee
Current Conditions -  °F | °C
As of 7:53 PM on Wednesday 22 Oct 2014 (Local Time) from KCHA Reporting Station
Clear Clear  
Wind Chill: 57°   Ceiling: Unl
Heat Index: 57°   Visibility: 10mi
Dew Point: 43°   Wind: 6mph
Humidity: 59%   Direction: 30°NNE
Pressure: 30.16"   Gusts: NA
Location:  35.06°N, 85.07°W
Report Text: KCHA 222353Z 03005KT 10SM CLR 14/06 A3016 RMK AO2 SLP213 T01390061 10183 20139 53007
Loading
Personal Weather Stations






























Interactive Weather Map New forecast layout! Learn more

10-Day Weather Forecast

Advertisements
Track Severe Weather on mobile